sensor_id;sensor_type;location;lat;lon;timestamp;temperature;humidity
652;DHT22;310;48.490;9.200;2022-07-23T00:01:36;26.10;42.10
652;DHT22;310;48.490;9.200;2022-07-23T00:04:02;25.90;45.90
652;DHT22;310;48.490;9.200;2022-07-23T00:06:27;25.90;46.90
652;DHT22;310;48.490;9.200;2022-07-23T00:08:53;25.80;46.90
652;DHT22;310;48.490;9.200;2022-07-23T00:11:19;25.80;46.90
652;DHT22;310;48.490;9.200;2022-07-23T00:13:45;25.80;48.40
652;DHT22;310;48.490;9.200;2022-07-23T00:16:10;25.70;47.80
652;DHT22;310;48.490;9.200;2022-07-23T00:18:36;25.40;41.90
652;DHT22;310;48.490;9.200;2022-07-23T00:21:02;25.50;46.70
652;DHT22;310;48.490;9.200;2022-07-23T00:23:28;25.60;46.70
652;DHT22;310;48.490;9.200;2022-07-23T00:25:54;25.70;47.60
652;DHT22;310;48.490;9.200;2022-07-23T00:28:20;25.80;46.50
652;DHT22;310;48.490;9.200;2022-07-23T00:30:45;25.80;46.20
652;DHT22;310;48.490;9.200;2022-07-23T00:33:11;25.60;46.10
652;DHT22;310;48.490;9.200;2022-07-23T00:35:39;25.60;46.70
652;DHT22;310;48.490;9.200;2022-07-23T00:38:07;25.70;46.30
652;DHT22;310;48.490;9.200;2022-07-23T00:40:33;25.80;44.50
652;DHT22;310;48.490;9.200;2022-07-23T00:42:59;25.10;43.90
652;DHT22;310;48.490;9.200;2022-07-23T00:45:25;25.10;48.50
652;DHT22;310;48.490;9.200;2022-07-23T00:47:51;24.80;48.30
652;DHT22;310;48.490;9.200;2022-07-23T00:50:17;24.40;49.30
652;DHT22;310;48.490;9.200;2022-07-23T00:52:43;24.40;49.20
652;DHT22;310;48.490;9.200;2022-07-23T00:55:09;24.50;47.70
652;DHT22;310;48.490;9.200;2022-07-23T00:57:38;25.20;50.30
652;DHT22;310;48.490;9.200;2022-07-23T01:00:05;25.70;47.70
652;DHT22;310;48.490;9.200;2022-07-23T01:02:31;26.10;45.70
652;DHT22;310;48.490;9.200;2022-07-23T01:04:57;26.40;42.60
652;DHT22;310;48.490;9.200;2022-07-23T01:07:23;26.30;45.80
652;DHT22;310;48.490;9.200;2022-07-23T01:09:50;26.10;45.60
652;DHT22;310;48.490;9.200;2022-07-23T01:12:16;26.00;46.50
652;DHT22;310;48.490;9.200;2022-07-23T01:14:42;26.20;45.70
652;DHT22;310;48.490;9.200;2022-07-23T01:17:07;26.10;46.60
652;DHT22;310;48.490;9.200;2022-07-23T01:19:33;26.30;46.10
652;DHT22;310;48.490;9.200;2022-07-23T01:22:02;26.10;47.10
652;DHT22;310;48.490;9.200;2022-07-23T01:24:27;26.00;46.30
652;DHT22;310;48.490;9.200;2022-07-23T01:26:53;26.20;44.30
652;DHT22;310;48.490;9.200;2022-07-23T01:29:19;26.30;45.60
652;DHT22;310;48.490;9.200;2022-07-23T01:31:46;26.10;47.10
652;DHT22;310;48.490;9.200;2022-07-23T01:34:12;26.00;48.30
652;DHT22;310;48.490;9.200;2022-07-23T01:36:38;26.00;47.90
652;DHT22;310;48.490;9.200;2022-07-23T01:39:05;25.90;47.30
652;DHT22;310;48.490;9.200;2022-07-23T01:41:31;25.80;46.30
652;DHT22;310;48.490;9.200;2022-07-23T01:43:57;25.60;44.80
652;DHT22;310;48.490;9.200;2022-07-23T01:46:23;25.60;44.50
652;DHT22;310;48.490;9.200;2022-07-23T01:48:49;25.50;44.20
652;DHT22;310;48.490;9.200;2022-07-23T01:51:14;25.60;44.40
652;DHT22;310;48.490;9.200;2022-07-23T01:53:40;25.60;43.20
652;DHT22;310;48.490;9.200;2022-07-23T01:56:06;25.40;42.30
652;DHT22;310;48.490;9.200;2022-07-23T01:58:32;25.60;41.90
652;DHT22;310;48.490;9.200;2022-07-23T02:00:58;25.50;42.10
652;DHT22;310;48.490;9.200;2022-07-23T02:03:24;25.40;41.40
652;DHT22;310;48.490;9.200;2022-07-23T02:05:50;25.20;42.20
652;DHT22;310;48.490;9.200;2022-07-23T02:08:16;25.20;40.90
652;DHT22;310;48.490;9.200;2022-07-23T02:10:42;25.20;39.80
652;DHT22;310;48.490;9.200;2022-07-23T02:13:08;25.30;40.40
652;DHT22;310;48.490;9.200;2022-07-23T02:15:34;25.60;41.00
652;DHT22;310;48.490;9.200;2022-07-23T02:18:00;25.90;38.40
652;DHT22;310;48.490;9.200;2022-07-23T02:20:25;25.90;40.40
652;DHT22;310;48.490;9.200;2022-07-23T02:22:51;25.90;37.70
652;DHT22;310;48.490;9.200;2022-07-23T02:25:17;25.80;38.20
652;DHT22;310;48.490;9.200;2022-07-23T02:27:43;25.70;39.50
652;DHT22;310;48.490;9.200;2022-07-23T02:30:09;25.90;39.10
652;DHT22;310;48.490;9.200;2022-07-23T02:32:36;25.80;40.80
652;DHT22;310;48.490;9.200;2022-07-23T02:35:03;25.50;36.70
652;DHT22;310;48.490;9.200;2022-07-23T02:37:29;25.10;41.30
652;DHT22;310;48.490;9.200;2022-07-23T02:39:55;25.20;43.90
652;DHT22;310;48.490;9.200;2022-07-23T02:42:20;25.30;44.40
652;DHT22;310;48.490;9.200;2022-07-23T02:44:46;25.60;40.70
652;DHT22;310;48.490;9.200;2022-07-23T02:47:12;25.50;41.00
652;DHT22;310;48.490;9.200;2022-07-23T02:49:37;25.20;43.40
652;DHT22;310;48.490;9.200;2022-07-23T02:52:03;25.30;43.70
652;DHT22;310;48.490;9.200;2022-07-23T02:54:29;24.70;45.50
652;DHT22;310;48.490;9.200;2022-07-23T02:56:55;24.70;46.00
652;DHT22;310;48.490;9.200;2022-07-23T02:59:20;24.40;46.10
652;DHT22;310;48.490;9.200;2022-07-23T03:01:46;24.30;47.70
652;DHT22;310;48.490;9.200;2022-07-23T03:04:12;24.90;48.10
652;DHT22;310;48.490;9.200;2022-07-23T03:06:38;25.40;46.60
652;DHT22;310;48.490;9.200;2022-07-23T03:09:04;25.80;43.50
652;DHT22;310;48.490;9.200;2022-07-23T03:11:30;26.10;43.40
652;DHT22;310;48.490;9.200;2022-07-23T03:13:56;25.90;41.30
652;DHT22;310;48.490;9.200;2022-07-23T03:16:21;25.90;41.00
652;DHT22;310;48.490;9.200;2022-07-23T03:18:47;26.00;42.20
652;DHT22;310;48.490;9.200;2022-07-23T03:21:13;26.20;39.30
652;DHT22;310;48.490;9.200;2022-07-23T03:23:38;26.10;39.70
652;DHT22;310;48.490;9.200;2022-07-23T03:26:04;26.10;40.20
652;DHT22;310;48.490;9.200;2022-07-23T03:28:30;25.80;42.10
652;DHT22;310;48.490;9.200;2022-07-23T03:30:56;25.80;43.30
652;DHT22;310;48.490;9.200;2022-07-23T03:33:22;25.60;44.90
652;DHT22;310;48.490;9.200;2022-07-23T03:35:48;25.60;44.60
652;DHT22;310;48.490;9.200;2022-07-23T03:38:14;25.70;43.70
652;DHT22;310;48.490;9.200;2022-07-23T03:40:40;25.60;45.50
652;DHT22;310;48.490;9.200;2022-07-23T03:43:05;25.40;45.90
652;DHT22;310;48.490;9.200;2022-07-23T03:45:32;25.50;45.90
652;DHT22;310;48.490;9.200;2022-07-23T03:47:57;25.40;46.30
652;DHT22;310;48.490;9.200;2022-07-23T03:50:23;25.30;46.50
652;DHT22;310;48.490;9.200;2022-07-23T03:52:49;25.30;46.10
652;DHT22;310;48.490;9.200;2022-07-23T03:55:15;25.30;47.20
652;DHT22;310;48.490;9.200;2022-07-23T03:57:41;25.20;46.30
652;DHT22;310;48.490;9.200;2022-07-23T04:00:08;25.30;44.30
652;DHT22;310;48.490;9.200;2022-07-23T04:02:35;25.50;44.70
652;DHT22;310;48.490;9.200;2022-07-23T04:05:00;25.30;46.50
652;DHT22;310;48.490;9.200;2022-07-23T04:07:26;25.00;47.10
652;DHT22;310;48.490;9.200;2022-07-23T04:09:52;25.00;48.00
652;DHT22;310;48.490;9.200;2022-07-23T04:12:18;25.00;47.70
652;DHT22;310;48.490;9.200;2022-07-23T04:14:44;25.10;46.80
652;DHT22;310;48.490;9.200;2022-07-23T04:17:10;25.30;44.80
652;DHT22;310;48.490;9.200;2022-07-23T04:19:36;25.30;43.40
652;DHT22;310;48.490;9.200;2022-07-23T04:22:06;25.50;43.10
652;DHT22;310;48.490;9.200;2022-07-23T04:24:31;25.50;41.00
652;DHT22;310;48.490;9.200;2022-07-23T04:26:57;25.50;43.50
652;DHT22;310;48.490;9.200;2022-07-23T04:29:23;25.50;42.80
652;DHT22;310;48.490;9.200;2022-07-23T04:31:49;25.40;42.20
652;DHT22;310;48.490;9.200;2022-07-23T04:34:15;25.40;41.90
652;DHT22;310;48.490;9.200;2022-07-23T04:36:40;25.40;42.80
652;DHT22;310;48.490;9.200;2022-07-23T04:39:06;25.50;41.50
652;DHT22;310;48.490;9.200;2022-07-23T04:41:32;25.40;39.60
652;DHT22;310;48.490;9.200;2022-07-23T04:43:58;25.40;43.20
652;DHT22;310;48.490;9.200;2022-07-23T04:46:23;25.70;41.60
652;DHT22;310;48.490;9.200;2022-07-23T04:48:49;25.80;42.70
652;DHT22;310;48.490;9.200;2022-07-23T04:51:14;25.60;43.50
652;DHT22;310;48.490;9.200;2022-07-23T04:53:40;25.50;44.80
652;DHT22;310;48.490;9.200;2022-07-23T04:56:06;25.50;43.70
652;DHT22;310;48.490;9.200;2022-07-23T04:58:32;25.50;42.90
652;DHT22;310;48.490;9.200;2022-07-23T05:00:57;25.60;41.00
652;DHT22;310;48.490;9.200;2022-07-23T05:03:23;25.70;40.10
652;DHT22;310;48.490;9.200;2022-07-23T05:05:49;25.80;41.00
652;DHT22;310;48.490;9.200;2022-07-23T05:08:14;25.80;40.20
652;DHT22;310;48.490;9.200;2022-07-23T05:10:40;25.90;37.90
652;DHT22;310;48.490;9.200;2022-07-23T05:13:06;25.90;38.50
652;DHT22;310;48.490;9.200;2022-07-23T05:15:31;26.10;39.90
652;DHT22;310;48.490;9.200;2022-07-23T05:17:57;26.00;40.70
652;DHT22;310;48.490;9.200;2022-07-23T05:20:22;25.90;41.30
652;DHT22;310;48.490;9.200;2022-07-23T05:22:48;25.80;41.70
652;DHT22;310;48.490;9.200;2022-07-23T05:25:14;25.80;42.40
652;DHT22;310;48.490;9.200;2022-07-23T05:27:40;25.90;38.70
652;DHT22;310;48.490;9.200;2022-07-23T05:30:06;26.10;39.70
652;DHT22;310;48.490;9.200;2022-07-23T05:32:32;26.00;40.80
652;DHT22;310;48.490;9.200;2022-07-23T05:34:58;26.00;42.30
652;DHT22;310;48.490;9.200;2022-07-23T05:37:23;25.90;42.80
652;DHT22;310;48.490;9.200;2022-07-23T05:39:49;25.90;43.30
652;DHT22;310;48.490;9.200;2022-07-23T05:42:14;25.80;42.70
652;DHT22;310;48.490;9.200;2022-07-23T05:44:40;25.80;41.50
652;DHT22;310;48.490;9.200;2022-07-23T05:47:06;25.90;42.00
652;DHT22;310;48.490;9.200;2022-07-23T05:49:31;25.90;40.20
652;DHT22;310;48.490;9.200;2022-07-23T05:51:57;26.00;40.60
652;DHT22;310;48.490;9.200;2022-07-23T05:54:22;26.00;39.30
652;DHT22;310;48.490;9.200;2022-07-23T05:56:48;25.80;41.70
652;DHT22;310;48.490;9.200;2022-07-23T05:59:15;25.80;42.60
652;DHT22;310;48.490;9.200;2022-07-23T06:01:41;26.00;37.60
652;DHT22;310;48.490;9.200;2022-07-23T06:04:07;25.90;36.90
652;DHT22;310;48.490;9.200;2022-07-23T06:06:33;25.80;41.10
652;DHT22;310;48.490;9.200;2022-07-23T06:08:58;26.00;36.30
652;DHT22;310;48.490;9.200;2022-07-23T06:11:24;26.30;37.20
652;DHT22;310;48.490;9.200;2022-07-23T06:13:50;26.50;37.70
652;DHT22;310;48.490;9.200;2022-07-23T06:16:15;26.40;36.20
652;DHT22;310;48.490;9.200;2022-07-23T06:18:41;26.60;37.90
652;DHT22;310;48.490;9.200;2022-07-23T06:21:06;26.50;38.50
652;DHT22;310;48.490;9.200;2022-07-23T06:23:32;26.70;35.90
652;DHT22;310;48.490;9.200;2022-07-23T06:25:58;26.90;35.70
652;DHT22;310;48.490;9.200;2022-07-23T06:28:23;26.80;36.60
652;DHT22;310;48.490;9.200;2022-07-23T06:30:49;26.90;35.90
652;DHT22;310;48.490;9.200;2022-07-23T06:33:14;26.80;37.60
652;DHT22;310;48.490;9.200;2022-07-23T06:35:40;27.00;33.90
652;DHT22;310;48.490;9.200;2022-07-23T06:38:06;27.10;33.70
652;DHT22;310;48.490;9.200;2022-07-23T06:40:31;26.70;32.90
652;DHT22;310;48.490;9.200;2022-07-23T06:42:57;26.70;33.60
652;DHT22;310;48.490;9.200;2022-07-23T06:45:22;26.90;34.30
652;DHT22;310;48.490;9.200;2022-07-23T06:47:48;26.00;34.50
652;DHT22;310;48.490;9.200;2022-07-23T06:50:13;26.00;35.10
652;DHT22;310;48.490;9.200;2022-07-23T06:52:39;25.70;35.70
652;DHT22;310;48.490;9.200;2022-07-23T06:55:05;25.90;36.20
652;DHT22;310;48.490;9.200;2022-07-23T06:57:31;26.60;35.60
652;DHT22;310;48.490;9.200;2022-07-23T06:59:56;26.60;34.10
652;DHT22;310;48.490;9.200;2022-07-23T07:02:22;26.10;36.00
652;DHT22;310;48.490;9.200;2022-07-23T07:04:48;26.00;37.20
652;DHT22;310;48.490;9.200;2022-07-23T07:07:14;26.00;36.70
652;DHT22;310;48.490;9.200;2022-07-23T07:09:39;26.30;35.80
652;DHT22;310;48.490;9.200;2022-07-23T07:12:05;26.40;36.60
652;DHT22;310;48.490;9.200;2022-07-23T07:14:31;26.00;37.50
652;DHT22;310;48.490;9.200;2022-07-23T07:16:56;26.00;38.00
652;DHT22;310;48.490;9.200;2022-07-23T07:19:22;25.70;37.60
652;DHT22;310;48.490;9.200;2022-07-23T07:21:48;25.70;38.40
652;DHT22;310;48.490;9.200;2022-07-23T07:24:13;26.40;36.70
652;DHT22;310;48.490;9.200;2022-07-23T07:26:39;26.50;37.30
652;DHT22;310;48.490;9.200;2022-07-23T07:29:05;27.30;35.50
652;DHT22;310;48.490;9.200;2022-07-23T07:31:31;27.50;32.60
652;DHT22;310;48.490;9.200;2022-07-23T07:33:57;27.70;33.20
652;DHT22;310;48.490;9.200;2022-07-23T07:36:23;27.80;33.00
652;DHT22;310;48.490;9.200;2022-07-23T07:38:49;28.00;31.40
652;DHT22;310;48.490;9.200;2022-07-23T07:41:15;27.80;29.60
652;DHT22;310;48.490;9.200;2022-07-23T07:43:41;27.70;30.60
652;DHT22;310;48.490;9.200;2022-07-23T07:46:06;27.20;30.00
652;DHT22;310;48.490;9.200;2022-07-23T07:48:36;26.20;31.20
652;DHT22;310;48.490;9.200;2022-07-23T07:51:02;26.10;31.70
652;DHT22;310;48.490;9.200;2022-07-23T07:53:27;26.50;33.40
652;DHT22;310;48.490;9.200;2022-07-23T07:55:53;26.70;31.10
652;DHT22;310;48.490;9.200;2022-07-23T07:58:19;27.30;31.70
652;DHT22;310;48.490;9.200;2022-07-23T08:00:44;28.20;28.40
652;DHT22;310;48.490;9.200;2022-07-23T08:03:10;28.30;29.00
652;DHT22;310;48.490;9.200;2022-07-23T08:05:35;28.70;27.00
652;DHT22;310;48.490;9.200;2022-07-23T08:08:01;28.80;27.50
652;DHT22;310;48.490;9.200;2022-07-23T08:10:28;28.70;27.60
652;DHT22;310;48.490;9.200;2022-07-23T08:12:55;28.70;27.60
652;DHT22;310;48.490;9.200;2022-07-23T08:15:26;28.70;27.60
652;DHT22;310;48.490;9.200;2022-07-23T08:17:52;28.80;26.30
652;DHT22;310;48.490;9.200;2022-07-23T08:20:21;28.90;27.40
652;DHT22;310;48.490;9.200;2022-07-23T08:23:03;27.30;28.90
652;DHT22;310;48.490;9.200;2022-07-23T08:25:31;27.30;29.40
652;DHT22;310;48.490;9.200;2022-07-23T08:27:58;27.10;30.80
652;DHT22;310;48.490;9.200;2022-07-23T08:30:25;26.90;33.20
652;DHT22;310;48.490;9.200;2022-07-23T08:33:13;26.90;32.80
652;DHT22;310;48.490;9.200;2022-07-23T08:35:42;27.00;35.90
652;DHT22;310;48.490;9.200;2022-07-23T08:38:09;27.10;34.50
652;DHT22;310;48.490;9.200;2022-07-23T08:40:40;27.10;33.40
652;DHT22;310;48.490;9.200;2022-07-23T08:43:08;27.10;34.00
652;DHT22;310;48.490;9.200;2022-07-23T08:45:39;27.40;33.20
652;DHT22;310;48.490;9.200;2022-07-23T08:48:08;28.00;32.60
652;DHT22;310;48.490;9.200;2022-07-23T08:50:35;27.70;31.90
652;DHT22;310;48.490;9.200;2022-07-23T08:53:06;27.40;31.40
652;DHT22;310;48.490;9.200;2022-07-23T08:55:32;27.70;30.70
652;DHT22;310;48.490;9.200;2022-07-23T08:57:58;28.10;29.80
652;DHT22;310;48.490;9.200;2022-07-23T09:00:23;27.90;29.70
652;DHT22;310;48.490;9.200;2022-07-23T09:02:50;27.90;30.00
652;DHT22;310;48.490;9.200;2022-07-23T09:05:17;27.90;30.10
652;DHT22;310;48.490;9.200;2022-07-23T09:10:52;28.10;30.10
652;DHT22;310;48.490;9.200;2022-07-23T09:15:51;27.70;31.30
652;DHT22;310;48.490;9.200;2022-07-23T09:18:17;27.90;29.70
652;DHT22;310;48.490;9.200;2022-07-23T09:20:46;27.80;30.40
652;DHT22;310;48.490;9.200;2022-07-23T09:23:11;27.50;30.40
652;DHT22;310;48.490;9.200;2022-07-23T09:25:37;27.00;31.20
652;DHT22;310;48.490;9.200;2022-07-23T09:28:03;26.90;32.00
652;DHT22;310;48.490;9.200;2022-07-23T09:30:31;26.60;31.90
652;DHT22;310;48.490;9.200;2022-07-23T09:33:11;26.60;32.80
652;DHT22;310;48.490;9.200;2022-07-23T09:35:54;27.40;31.00
652;DHT22;310;48.490;9.200;2022-07-23T09:38:24;28.30;32.60
652;DHT22;310;48.490;9.200;2022-07-23T09:41:10;28.30;30.00
652;DHT22;310;48.490;9.200;2022-07-23T09:43:35;28.30;29.80
652;DHT22;310;48.490;9.200;2022-07-23T09:46:37;28.30;30.90
652;DHT22;310;48.490;9.200;2022-07-23T09:49:11;29.00;28.60
652;DHT22;310;48.490;9.200;2022-07-23T09:51:54;28.90;29.20
652;DHT22;310;48.490;9.200;2022-07-23T09:54:27;29.10;29.50
652;DHT22;310;48.490;9.200;2022-07-23T09:56:55;29.30;28.00
652;DHT22;310;48.490;9.200;2022-07-23T09:59:26;29.60;29.10
652;DHT22;310;48.490;9.200;2022-07-23T10:01:54;28.60;28.60
652;DHT22;310;48.490;9.200;2022-07-23T10:04:23;28.50;29.20
652;DHT22;310;48.490;9.200;2022-07-23T10:06:55;27.90;31.10
652;DHT22;310;48.490;9.200;2022-07-23T10:09:26;27.80;31.50
652;DHT22;310;48.490;9.200;2022-07-23T10:11:55;27.50;31.10
652;DHT22;310;48.490;9.200;2022-07-23T10:14:26;27.40;33.00
652;DHT22;310;48.490;9.200;2022-07-23T10:16:53;28.10;30.80
652;DHT22;310;48.490;9.200;2022-07-23T10:19:19;28.30;30.00
652;DHT22;310;48.490;9.200;2022-07-23T10:21:50;28.50;29.70
652;DHT22;310;48.490;9.200;2022-07-23T10:29:52;28.90;28.90
652;DHT22;310;48.490;9.200;2022-07-23T10:35:09;30.60;25.70
652;DHT22;310;48.490;9.200;2022-07-23T10:37:43;30.50;26.50
652;DHT22;310;48.490;9.200;2022-07-23T10:40:21;30.40;25.80
652;DHT22;310;48.490;9.200;2022-07-23T10:42:50;29.30;27.40
652;DHT22;310;48.490;9.200;2022-07-23T10:45:36;28.70;28.50
652;DHT22;310;48.490;9.200;2022-07-23T10:48:20;28.30;29.50
652;DHT22;310;48.490;9.200;2022-07-23T10:51:07;28.60;28.90
652;DHT22;310;48.490;9.200;2022-07-23T10:54:02;29.40;29.00
652;DHT22;310;48.490;9.200;2022-07-23T10:57:05;30.20;27.30
652;DHT22;310;48.490;9.200;2022-07-23T10:59:43;30.70;27.60
652;DHT22;310;48.490;9.200;2022-07-23T11:02:21;30.80;25.30
652;DHT22;310;48.490;9.200;2022-07-23T11:04:52;30.90;25.40
652;DHT22;310;48.490;9.200;2022-07-23T11:07:18;30.00;25.80
652;DHT22;310;48.490;9.200;2022-07-23T11:09:44;30.30;26.10
652;DHT22;310;48.490;9.200;2022-07-23T11:17:27;29.10;27.00
652;DHT22;310;48.490;9.200;2022-07-23T11:25:10;29.90;26.60
652;DHT22;310;48.490;9.200;2022-07-23T11:27:45;30.40;23.70
652;DHT22;310;48.490;9.200;2022-07-23T11:35:47;29.90;25.50
652;DHT22;310;48.490;9.200;2022-07-23T11:40:41;31.20;24.90
652;DHT22;310;48.490;9.200;2022-07-23T11:43:08;31.20;25.80
652;DHT22;310;48.490;9.200;2022-07-23T11:45:39;30.70;23.90
652;DHT22;310;48.490;9.200;2022-07-23T11:48:07;29.50;26.00
652;DHT22;310;48.490;9.200;2022-07-23T11:50:33;29.90;26.00
652;DHT22;310;48.490;9.200;2022-07-23T11:52:59;29.90;26.50
652;DHT22;310;48.490;9.200;2022-07-23T11:55:25;30.60;26.80
652;DHT22;310;48.490;9.200;2022-07-23T11:57:52;31.50;25.40
652;DHT22;310;48.490;9.200;2022-07-23T12:00:22;31.50;24.60
652;DHT22;310;48.490;9.200;2022-07-23T12:02:50;31.90;24.20
652;DHT22;310;48.490;9.200;2022-07-23T12:05:18;32.30;22.70
652;DHT22;310;48.490;9.200;2022-07-23T12:07:47;31.80;23.90
652;DHT22;310;48.490;9.200;2022-07-23T12:10:25;32.40;24.70
652;DHT22;310;48.490;9.200;2022-07-23T12:12:56;33.20;22.20
652;DHT22;310;48.490;9.200;2022-07-23T12:15:28;33.50;21.50
652;DHT22;310;48.490;9.200;2022-07-23T12:17:56;33.70;21.80
652;DHT22;310;48.490;9.200;2022-07-23T12:20:28;34.40;21.00
652;DHT22;310;48.490;9.200;2022-07-23T12:22:59;34.50;20.50
652;DHT22;310;48.490;9.200;2022-07-23T12:25:30;34.20;20.90
652;DHT22;310;48.490;9.200;2022-07-23T12:28:04;33.60;19.60
652;DHT22;310;48.490;9.200;2022-07-23T12:33:11;31.30;21.90
652;DHT22;310;48.490;9.200;2022-07-23T12:35:40;30.50;23.70
652;DHT22;310;48.490;9.200;2022-07-23T12:38:17;31.40;23.60
652;DHT22;310;48.490;9.200;2022-07-23T12:40:48;33.80;19.50
652;DHT22;310;48.490;9.200;2022-07-23T12:43:29;33.80;19.40
652;DHT22;310;48.490;9.200;2022-07-23T12:46:11;33.20;19.40
652;DHT22;310;48.490;9.200;2022-07-23T12:48:51;32.80;19.40
652;DHT22;310;48.490;9.200;2022-07-23T12:51:25;32.70;20.30
652;DHT22;310;48.490;9.200;2022-07-23T12:53:53;32.50;21.50
652;DHT22;310;48.490;9.200;2022-07-23T12:56:26;33.80;19.40
652;DHT22;310;48.490;9.200;2022-07-23T13:01:22;34.20;17.70
652;DHT22;310;48.490;9.200;2022-07-23T13:06:24;33.80;19.90
652;DHT22;310;48.490;9.200;2022-07-23T13:08:50;33.80;20.60
652;DHT22;310;48.490;9.200;2022-07-23T13:11:15;33.80;18.60
652;DHT22;310;48.490;9.200;2022-07-23T13:13:41;32.70;19.60
652;DHT22;310;48.490;9.200;2022-07-23T13:16:07;32.60;21.90
652;DHT22;310;48.490;9.200;2022-07-23T13:18:32;32.80;21.60
652;DHT22;310;48.490;9.200;2022-07-23T13:20:58;32.80;21.40
652;DHT22;310;48.490;9.200;2022-07-23T13:23:24;32.30;20.30
652;DHT22;310;48.490;9.200;2022-07-23T13:25:51;31.70;20.90
652;DHT22;310;48.490;9.200;2022-07-23T13:28:17;31.10;22.20
652;DHT22;310;48.490;9.200;2022-07-23T13:30:44;31.40;21.20
652;DHT22;310;48.490;9.200;2022-07-23T13:33:11;31.30;21.70
652;DHT22;310;48.490;9.200;2022-07-23T13:35:37;30.70;22.10
652;DHT22;310;48.490;9.200;2022-07-23T13:38:04;30.00;23.70
652;DHT22;310;48.490;9.200;2022-07-23T13:40:30;31.10;20.50
652;DHT22;310;48.490;9.200;2022-07-23T13:42:56;31.10;21.00
652;DHT22;310;48.490;9.200;2022-07-23T13:45:22;30.70;22.20
652;DHT22;310;48.490;9.200;2022-07-23T13:47:47;30.90;22.20
652;DHT22;310;48.490;9.200;2022-07-23T13:50:13;31.20;21.60
652;DHT22;310;48.490;9.200;2022-07-23T13:52:41;31.30;24.10
652;DHT22;310;48.490;9.200;2022-07-23T13:55:07;29.90;22.50
652;DHT22;310;48.490;9.200;2022-07-23T13:57:33;30.20;23.00
652;DHT22;310;48.490;9.200;2022-07-23T13:59:59;30.20;23.20
652;DHT22;310;48.490;9.200;2022-07-23T14:02:25;29.80;23.10
652;DHT22;310;48.490;9.200;2022-07-23T14:04:51;29.80;24.00
652;DHT22;310;48.490;9.200;2022-07-23T14:07:18;30.50;22.70
652;DHT22;310;48.490;9.200;2022-07-23T14:09:43;30.80;21.40
652;DHT22;310;48.490;9.200;2022-07-23T14:12:09;31.10;21.10
652;DHT22;310;48.490;9.200;2022-07-23T14:14:35;30.70;21.30
652;DHT22;310;48.490;9.200;2022-07-23T14:17:01;30.00;22.40
652;DHT22;310;48.490;9.200;2022-07-23T14:19:27;29.30;23.90
652;DHT22;310;48.490;9.200;2022-07-23T14:21:53;29.00;24.30
652;DHT22;310;48.490;9.200;2022-07-23T14:24:18;28.90;24.40
652;DHT22;310;48.490;9.200;2022-07-23T14:26:44;28.80;25.30
652;DHT22;310;48.490;9.200;2022-07-23T14:29:10;29.50;26.80
652;DHT22;310;48.490;9.200;2022-07-23T14:31:36;30.50;23.80
652;DHT22;310;48.490;9.200;2022-07-23T14:34:01;31.00;22.60
652;DHT22;310;48.490;9.200;2022-07-23T14:36:27;30.40;22.30
652;DHT22;310;48.490;9.200;2022-07-23T14:38:53;30.80;23.90
652;DHT22;310;48.490;9.200;2022-07-23T14:41:19;31.30;24.30
652;DHT22;310;48.490;9.200;2022-07-23T14:43:45;29.90;23.40
652;DHT22;310;48.490;9.200;2022-07-23T14:46:12;29.40;24.10
652;DHT22;310;48.490;9.200;2022-07-23T14:48:38;29.70;25.20
652;DHT22;310;48.490;9.200;2022-07-23T14:51:04;30.70;22.90
652;DHT22;310;48.490;9.200;2022-07-23T14:53:30;31.50;23.70
652;DHT22;310;48.490;9.200;2022-07-23T14:55:56;32.30;21.60
652;DHT22;310;48.490;9.200;2022-07-23T14:58:23;31.90;20.30
652;DHT22;310;48.490;9.200;2022-07-23T15:00:50;31.50;20.80
652;DHT22;310;48.490;9.200;2022-07-23T15:03:16;31.40;21.30
652;DHT22;310;48.490;9.200;2022-07-23T15:05:41;32.00;22.20
652;DHT22;310;48.490;9.200;2022-07-23T15:08:07;32.70;21.00
652;DHT22;310;48.490;9.200;2022-07-23T15:10:33;32.70;18.60
652;DHT22;310;48.490;9.200;2022-07-23T15:12:58;32.70;19.80
652;DHT22;310;48.490;9.200;2022-07-23T15:15:24;32.20;19.80
652;DHT22;310;48.490;9.200;2022-07-23T15:17:50;32.70;20.80
652;DHT22;310;48.490;9.200;2022-07-23T15:20:16;32.90;20.40
652;DHT22;310;48.490;9.200;2022-07-23T15:22:41;33.30;19.70
652;DHT22;310;48.490;9.200;2022-07-23T15:25:07;32.70;19.90
652;DHT22;310;48.490;9.200;2022-07-23T15:27:33;34.40;20.00
652;DHT22;310;48.490;9.200;2022-07-23T15:29:59;33.80;19.10
652;DHT22;310;48.490;9.200;2022-07-23T15:32:24;33.30;18.80
652;DHT22;310;48.490;9.200;2022-07-23T15:34:54;33.20;18.40
652;DHT22;310;48.490;9.200;2022-07-23T15:37:20;33.50;18.60
652;DHT22;310;48.490;9.200;2022-07-23T15:39:48;33.60;17.60
652;DHT22;310;48.490;9.200;2022-07-23T15:42:14;32.00;18.90
652;DHT22;310;48.490;9.200;2022-07-23T15:44:40;31.70;20.50
652;DHT22;310;48.490;9.200;2022-07-23T15:47:11;32.50;20.90
652;DHT22;310;48.490;9.200;2022-07-23T15:49:37;32.70;19.90
652;DHT22;310;48.490;9.200;2022-07-23T15:52:03;33.30;19.20
652;DHT22;310;48.490;9.200;2022-07-23T15:54:28;33.50;17.50
652;DHT22;310;48.490;9.200;2022-07-23T15:56:54;33.10;18.60
652;DHT22;310;48.490;9.200;2022-07-23T15:59:19;32.70;18.30
652;DHT22;310;48.490;9.200;2022-07-23T16:01:45;32.80;19.00
652;DHT22;310;48.490;9.200;2022-07-23T16:04:11;32.50;18.20
652;DHT22;310;48.490;9.200;2022-07-23T16:06:37;31.20;19.40
652;DHT22;310;48.490;9.200;2022-07-23T16:09:02;31.10;19.50
652;DHT22;310;48.490;9.200;2022-07-23T16:11:29;30.30;20.60
652;DHT22;310;48.490;9.200;2022-07-23T16:13:55;30.10;20.50
652;DHT22;310;48.490;9.200;2022-07-23T16:16:20;30.10;21.10
652;DHT22;310;48.490;9.200;2022-07-23T16:18:47;30.70;21.30
652;DHT22;310;48.490;9.200;2022-07-23T16:21:16;31.20;19.20
652;DHT22;310;48.490;9.200;2022-07-23T16:23:43;30.80;19.80
652;DHT22;310;48.490;9.200;2022-07-23T16:26:08;30.80;19.80
652;DHT22;310;48.490;9.200;2022-07-23T16:28:34;30.20;20.70
652;DHT22;310;48.490;9.200;2022-07-23T16:31:00;30.30;21.00
652;DHT22;310;48.490;9.200;2022-07-23T16:33:25;30.40;20.70
652;DHT22;310;48.490;9.200;2022-07-23T16:35:51;30.10;21.10
652;DHT22;310;48.490;9.200;2022-07-23T16:38:17;30.40;22.30
652;DHT22;310;48.490;9.200;2022-07-23T16:40:42;30.90;20.10
652;DHT22;310;48.490;9.200;2022-07-23T16:43:08;30.80;20.90
652;DHT22;310;48.490;9.200;2022-07-23T16:45:34;30.60;21.00
652;DHT22;310;48.490;9.200;2022-07-23T16:48:00;31.20;21.80
652;DHT22;310;48.490;9.200;2022-07-23T16:50:26;31.40;20.60
652;DHT22;310;48.490;9.200;2022-07-23T16:52:51;31.80;20.60
652;DHT22;310;48.490;9.200;2022-07-23T16:55:17;31.80;20.20
652;DHT22;310;48.490;9.200;2022-07-23T16:57:43;31.20;19.20
652;DHT22;310;48.490;9.200;2022-07-23T17:00:09;31.10;19.70
652;DHT22;310;48.490;9.200;2022-07-23T17:02:36;31.50;20.30
652;DHT22;310;48.490;9.200;2022-07-23T17:05:03;31.40;19.80
652;DHT22;310;48.490;9.200;2022-07-23T17:07:29;31.20;19.20
652;DHT22;310;48.490;9.200;2022-07-23T17:09:54;31.50;21.60
652;DHT22;310;48.490;9.200;2022-07-23T17:12:20;31.50;20.00
652;DHT22;310;48.490;9.200;2022-07-23T17:14:46;31.50;19.40